createdAt,value
2023-01-07T00:04:21.321Z,98233.44
2023-01-07T00:09:22.672Z,98225.16
2023-01-07T00:14:25.052Z,98236.81
2023-01-07T00:19:26.408Z,98226.34
2023-01-07T00:24:27.725Z,98233.34
2023-01-07T00:29:29.085Z,98226.69
2023-01-07T00:34:30.477Z,98223.06
2023-01-07T00:39:31.797Z,98218.72
2023-01-07T00:44:33.925Z,98217.88
2023-01-07T00:49:35.416Z,98205.41
2023-01-07T00:54:36.777Z,98213.91
2023-01-07T00:59:38.125Z,98211.25
2023-01-07T01:04:39.513Z,98218.06
2023-01-07T01:09:40.837Z,98218.41
2023-01-07T01:14:42.229Z,98210.78
2023-01-07T01:19:43.575Z,98215.78
2023-01-07T01:24:44.921Z,98218.09
2023-01-07T01:29:46.486Z,98216.78
2023-01-07T01:34:48.743Z,98209.28
2023-01-07T01:39:50.104Z,98208.13
2023-01-07T01:44:53.302Z,98214.13
2023-01-07T01:50:24.954Z,98213.78
2023-01-07T01:55:31.993Z,98218.94
2023-01-07T02:00:35.788Z,98207.28
2023-01-07T02:05:40.768Z,98212.47
2023-01-07T02:10:42.660Z,98207.81
2023-01-07T02:15:56.398Z,98200.78
2023-01-07T02:21:14.231Z,98198.81
2023-01-07T02:26:15.605Z,98182.81
2023-01-07T02:31:35.765Z,98187.81
2023-01-07T02:36:47.357Z,98184.81
2023-01-07T02:42:18.596Z,98171.47
2023-01-07T02:47:23.664Z,98173.97
2023-01-07T02:52:26.449Z,98161.94
2023-01-07T02:57:46.284Z,98169.41
2023-01-07T03:02:48.822Z,98166.97
2023-01-07T03:08:13.432Z,98169.63
2023-01-07T03:13:21.173Z,98163.63
2023-01-07T03:18:30.285Z,98170.41
2023-01-07T03:23:39.425Z,98166.53
2023-01-07T03:28:42.294Z,98166.38
2023-01-07T03:34:07.624Z,98173.19
2023-01-07T03:39:11.086Z,98170.22
2023-01-07T03:44:12.575Z,98162.75
2023-01-07T03:49:14.134Z,98163.63
2023-01-07T03:54:16.476Z,98166.06
2023-01-07T03:59:18.115Z,98162.38
2023-01-07T04:04:19.622Z,98162.53
2023-01-07T04:09:22.022Z,98153.72
2023-01-07T04:14:23.967Z,98158.69
2023-01-07T04:19:25.405Z,98151.50
2023-01-07T04:24:26.868Z,98146.34
2023-01-07T04:29:28.485Z,98144.84
2023-01-07T04:34:30.137Z,98147.28
2023-01-07T04:39:31.885Z,98146.22
2023-01-07T04:44:33.305Z,98138.56
2023-01-07T04:49:34.739Z,98136.75
2023-01-07T04:54:36.899Z,98137.56
2023-01-07T04:59:38.341Z,98141.38
2023-01-07T05:04:40.829Z,98141.53
2023-01-07T05:09:42.287Z,98123.41
2023-01-07T05:14:43.918Z,98133.19
2023-01-07T05:19:46.237Z,98130.06
2023-01-07T05:24:48.766Z,98121.53
2023-01-07T05:29:51.560Z,98121.28
2023-01-07T05:34:53.667Z,98109.25
2023-01-07T05:39:56.047Z,98113.09
2023-01-07T05:44:57.460Z,98110.16
2023-01-07T05:49:58.798Z,98105.50
2023-01-07T05:55:00.167Z,98123.34
2023-01-07T06:00:01.519Z,98121.00
2023-01-07T06:05:03.489Z,98120.34
2023-01-07T06:10:05.065Z,98117.34
2023-01-07T06:15:09.343Z,98120.50
2023-01-07T06:20:11.009Z,98124.53
2023-01-07T06:25:12.804Z,98117.03
2023-01-07T06:30:14.175Z,98113.22
2023-01-07T06:35:15.528Z,98113.06
2023-01-07T06:40:16.951Z,98109.22
2023-01-07T06:45:18.355Z,98102.91
2023-01-07T06:50:19.660Z,98114.38
2023-01-07T06:55:20.997Z,98114.56
2023-01-07T07:00:22.449Z,98111.91
2023-01-07T07:05:23.819Z,98113.56
2023-01-07T07:10:25.240Z,98112.53
2023-01-07T07:15:26.651Z,98117.72
2023-01-07T07:20:27.963Z,98115.41
2023-01-07T07:25:29.592Z,98110.56
2023-01-07T07:30:45.950Z,98113.72
2023-01-07T07:35:49.322Z,98117.22
2023-01-07T07:40:50.720Z,98115.22
2023-01-07T07:45:52.036Z,98120.22
2023-01-07T07:50:53.548Z,98107.56
2023-01-07T07:55:54.969Z,98102.56
2023-01-07T08:00:56.404Z,98101.56
2023-01-07T08:05:57.779Z,98092.41
2023-01-07T08:10:59.160Z,98091.44
2023-01-07T08:16:00.660Z,98088.09
2023-01-07T08:21:02.116Z,98091.56
2023-01-07T08:26:03.569Z,98096.41
2023-01-07T08:31:06.024Z,98100.56
2023-01-07T08:36:18.111Z,98098.59
2023-01-07T08:41:23.928Z,98092.59
2023-01-07T08:46:25.323Z,98090.56
2023-01-07T08:51:26.712Z,98092.91
2023-01-07T08:56:28.037Z,98087.22
2023-01-07T09:01:30.098Z,98090.25
2023-01-07T09:06:31.486Z,98087.53
2023-01-07T09:11:32.843Z,98086.66
2023-01-07T09:16:34.291Z,98083.84
2023-01-07T09:21:35.622Z,98070.16
2023-01-07T09:26:36.941Z,98070.16
2023-01-07T09:31:38.265Z,98070.34
2023-01-07T09:36:39.613Z,98063.50
2023-01-07T09:41:59.878Z,98070.47
2023-01-07T09:47:01.842Z,98067.75
2023-01-07T09:52:08.353Z,98064.22
2023-01-07T09:57:14.258Z,98063.69
2023-01-07T10:02:21.791Z,98050.00
2023-01-07T10:07:34.639Z,98029.84
2023-01-07T10:12:54.828Z,98031.19
2023-01-07T10:18:02.430Z,98029.22
2023-01-07T10:23:14.169Z,98027.59
2023-01-07T10:28:20.020Z,98018.22
2023-01-07T10:33:26.693Z,98006.69
2023-01-07T10:38:30.181Z,98011.47
2023-01-07T10:43:40.759Z,98002.00
2023-01-07T10:48:51.287Z,97998.69
2023-01-07T10:54:03.440Z,97995.94
2023-01-07T10:59:04.765Z,97986.59
2023-01-07T11:04:13.501Z,97985.22
2023-01-07T11:09:17.996Z,97965.72
2023-01-07T11:14:20.830Z,97949.53
2023-01-07T11:19:23.631Z,97945.06
2023-01-07T11:24:24.932Z,97938.81
2023-01-07T11:29:30.027Z,97937.78
2023-01-07T11:34:34.486Z,97927.84
2023-01-07T11:39:36.204Z,97921.13
2023-01-07T11:44:37.541Z,97919.94
2023-01-07T11:49:43.233Z,97906.88
2023-01-07T11:54:49.790Z,97912.78
2023-01-07T12:00:05.051Z,97906.88
2023-01-07T12:05:16.544Z,97897.88
2023-01-07T12:10:30.047Z,97887.81
2023-01-07T12:15:33.398Z,97895.16
2023-01-07T12:21:02.699Z,97889.25
2023-01-07T12:26:04.034Z,97869.69
2023-01-07T12:31:16.390Z,97871.09
2023-01-07T12:36:28.711Z,97866.38
2023-01-07T12:41:36.589Z,97864.22
2023-01-07T12:46:40.420Z,97863.91
2023-01-07T12:51:56.857Z,97850.75
2023-01-07T12:57:00.230Z,97851.88
2023-01-07T13:02:13.650Z,97852.19
2023-01-07T13:07:33.745Z,97851.56
2023-01-07T13:12:48.156Z,97842.66
2023-01-07T13:17:50.988Z,97847.75
2023-01-07T13:22:53.932Z,97843.47
2023-01-07T13:28:10.787Z,97845.44
2023-01-07T13:33:38.696Z,97837.97
2023-01-07T13:38:55.361Z,97829.19
2023-01-07T13:44:15.113Z,97822.56
2023-01-07T13:49:23.979Z,97817.78
2023-01-07T13:54:44.259Z,97810.81
2023-01-07T13:59:49.362Z,97814.41
2023-01-07T14:05:05.137Z,97803.19
2023-01-07T14:10:17.172Z,97801.78
2023-01-07T14:15:33.837Z,97791.84
2023-01-07T14:20:47.530Z,97785.22
2023-01-07T14:25:48.882Z,97783.03
2023-01-07T14:30:51.876Z,97772.25
2023-01-07T14:35:53.239Z,97763.97
2023-01-07T14:41:03.994Z,97762.44
2023-01-07T14:46:06.960Z,97757.88
2023-01-07T14:51:28.111Z,97757.50
2023-01-07T14:56:51.134Z,97751.03
2023-01-07T15:01:53.108Z,97758.06
2023-01-07T15:06:59.125Z,97749.59
2023-01-07T15:12:21.409Z,97746.66
2023-01-07T15:17:23.132Z,97740.19
2023-01-07T15:22:24.483Z,97743.72
2023-01-07T15:27:29.846Z,97741.13
2023-01-07T15:32:34.430Z,97738.88
2023-01-07T15:37:35.938Z,97749.75
2023-01-07T15:42:44.931Z,97740.63
2023-01-07T15:47:46.304Z,97745.47
2023-01-07T15:52:51.945Z,97730.78
2023-01-07T15:57:56.959Z,97742.13
2023-01-07T16:02:58.455Z,97729.50
2023-01-07T16:08:00.998Z,97726.84
2023-01-07T16:13:06.650Z,97723.81
2023-01-07T16:18:07.941Z,97710.16
2023-01-07T16:23:40.555Z,97706.31
2023-01-07T16:28:42.745Z,97700.19
2023-01-07T16:34:18.898Z,97698.03
2023-01-07T17:39:01.103Z,97631.88
2023-01-07T17:44:03.097Z,97634.72
2023-01-07T17:49:56.814Z,97638.53
2023-01-07T18:40:15.207Z,97592.72
2023-01-07T18:45:22.890Z,97596.84
2023-01-07T18:50:26.524Z,97608.50
2023-01-07T19:01:30.412Z,97624.66
2023-01-07T19:06:32.227Z,97611.41
2023-01-07T19:11:33.689Z,97604.09
2023-01-07T19:16:37.659Z,97604.75
2023-01-07T19:21:41.952Z,97610.72
2023-01-07T19:26:43.778Z,97605.72
2023-01-07T19:31:45.639Z,97608.38
2023-01-07T19:36:47.163Z,97605.38
2023-01-07T19:41:49.017Z,97605.22
2023-01-07T19:46:50.376Z,97602.69
2023-01-07T19:51:52.585Z,97584.00
2023-01-07T19:56:54.016Z,97586.28
2023-01-07T20:01:55.488Z,97581.50
2023-01-07T20:06:56.972Z,97569.53
2023-01-07T20:11:58.347Z,97558.44
2023-01-07T20:16:59.837Z,97548.00
2023-01-07T20:22:01.203Z,97544.03
2023-01-07T20:27:02.908Z,97546.53
2023-01-07T20:32:07.271Z,97538.41
2023-01-07T20:37:08.699Z,97536.41
2023-01-07T20:42:10.259Z,97532.75
2023-01-07T20:47:11.594Z,97528.28
2023-01-07T20:52:12.917Z,97514.88
2023-01-07T20:57:14.282Z,97516.38
2023-01-07T21:02:16.750Z,97517.69
2023-01-07T21:07:18.217Z,97515.53
2023-01-07T21:12:19.817Z,97499.31
2023-01-07T21:17:21.178Z,97496.66
2023-01-07T21:22:22.717Z,97475.63
2023-01-07T21:27:24.609Z,97481.25
2023-01-07T21:32:25.997Z,97479.41
2023-01-07T21:37:29.229Z,97471.13
2023-01-07T21:42:30.735Z,97463.31
2023-01-07T21:47:32.380Z,97457.53
2023-01-07T21:52:34.538Z,97452.88
2023-01-07T21:57:36.327Z,97461.69
2023-01-07T22:02:37.633Z,97454.88
2023-01-07T22:07:39.169Z,97445.94
2023-01-07T22:12:40.501Z,97462.19
2023-01-07T22:17:41.862Z,97466.13
2023-01-07T22:22:43.559Z,97440.97
2023-01-07T22:27:45.026Z,97440.78
2023-01-07T22:32:46.342Z,97439.97
2023-01-07T22:37:48.464Z,97438.31
2023-01-07T22:42:54.323Z,97424.38
2023-01-07T22:47:55.686Z,97419.75
2023-01-07T22:52:57.097Z,97405.03
2023-01-07T22:57:59.300Z,97409.81
2023-01-07T23:03:00.660Z,97403.53
2023-01-07T23:08:02.009Z,97408.47
2023-01-07T23:13:03.606Z,97407.81
2023-01-07T23:18:05.616Z,97398.88
2023-01-07T23:23:06.941Z,97386.78
2023-01-07T23:28:08.321Z,97382.50
2023-01-07T23:33:10.114Z,97388.63
2023-01-07T23:38:11.577Z,97376.00
2023-01-07T23:43:12.922Z,97360.94
2023-01-07T23:48:14.225Z,97361.44
2023-01-07T23:53:15.541Z,97350.50
2023-01-07T23:58:16.842Z,97368.88
